createdAt,value
2017-12-26T00:00:28.367Z,99.60
2017-12-26T00:03:34.238Z,99.70
2017-12-26T00:06:40.590Z,99.60
2017-12-26T00:09:46.406Z,99.60
2017-12-26T00:12:51.788Z,99.50
2017-12-26T00:15:57.418Z,99.40
2017-12-26T00:19:02.891Z,99.40
2017-12-26T00:22:07.848Z,99.30
2017-12-26T00:25:13.321Z,99.60
2017-12-26T00:28:18.409Z,99.60
2017-12-26T00:31:24.598Z,99.50
2017-12-26T00:34:30.086Z,99.40
2017-12-26T00:37:35.550Z,99.80
2017-12-26T00:40:41.327Z,99.30
2017-12-26T00:43:46.630Z,99.10
2017-12-26T00:46:52.275Z,99.00
2017-12-26T00:49:57.584Z,99.10
2017-12-26T00:53:03.223Z,98.70
2017-12-26T00:56:09.352Z,98.80
2017-12-26T00:59:14.450Z,98.70
2017-12-26T01:02:20.110Z,99.10
2017-12-26T01:05:25.212Z,99.20
2017-12-26T01:08:30.050Z,98.80
2017-12-26T01:11:35.221Z,98.80
2017-12-26T01:14:41.740Z,99.20
2017-12-26T01:17:47.674Z,99.20
2017-12-26T01:20:52.915Z,99.20
2017-12-26T01:23:58.578Z,99.30
2017-12-26T01:27:03.911Z,99.00
2017-12-26T01:30:08.712Z,98.70
2017-12-26T01:33:15.070Z,98.80
2017-12-26T01:36:20.627Z,98.80
2017-12-26T01:39:26.290Z,98.50
2017-12-26T01:42:31.451Z,99.00
2017-12-26T01:45:37.216Z,98.90
2017-12-26T01:48:42.603Z,99.00
2017-12-26T01:51:47.994Z,99.10
2017-12-26T01:54:53.654Z,99.20
2017-12-26T01:57:58.518Z,99.30
2017-12-26T02:01:03.623Z,99.30
2017-12-26T02:04:11.136Z,99.00
2017-12-26T02:07:17.116Z,99.00
2017-12-26T02:10:30.373Z,99.00
2017-12-26T02:13:36.164Z,99.00
2017-12-26T02:16:41.230Z,99.10
2017-12-26T02:19:46.826Z,99.30
2017-12-26T02:22:51.690Z,99.40
2017-12-26T02:25:56.681Z,99.70
2017-12-26T02:29:02.013Z,99.50
2017-12-26T02:32:07.597Z,99.30
2017-12-26T02:35:12.999Z,99.30
2017-12-26T02:38:18.726Z,99.40
2017-12-26T02:41:24.169Z,99.60
2017-12-26T02:44:29.926Z,99.50
2017-12-26T02:47:35.121Z,99.50
2017-12-26T02:50:40.820Z,99.50
2017-12-26T02:53:46.495Z,99.50
2017-12-26T02:56:52.584Z,99.50
2017-12-26T02:59:57.750Z,99.30
2017-12-26T03:03:02.836Z,99.30
2017-12-26T03:06:07.933Z,99.40
2017-12-26T03:09:13.378Z,99.20
2017-12-26T03:12:18.952Z,99.20
2017-12-26T03:15:25.340Z,99.20
2017-12-26T03:18:30.586Z,99.20
2017-12-26T03:21:35.800Z,99.30
2017-12-26T03:24:40.974Z,99.30
2017-12-26T03:27:46.162Z,99.40
2017-12-26T03:30:51.088Z,99.40
2017-12-26T03:33:57.019Z,99.20
2017-12-26T03:37:03.489Z,99.40
2017-12-26T03:40:09.892Z,99.20
2017-12-26T03:43:16.027Z,99.40
2017-12-26T03:46:21.122Z,99.40
2017-12-26T03:49:26.361Z,99.40
2017-12-26T03:52:31.818Z,99.30
2017-12-26T03:55:37.811Z,99.20
2017-12-26T03:58:42.587Z,99.40
2017-12-26T04:01:48.570Z,99.40
2017-12-26T04:04:54.453Z,99.50
2017-12-26T04:08:00.224Z,99.50
2017-12-26T04:11:05.516Z,99.40
2017-12-26T04:14:11.294Z,99.40
2017-12-26T04:17:16.221Z,99.40
2017-12-26T04:20:22.385Z,99.40
2017-12-26T04:23:27.272Z,99.40
2017-12-26T04:26:32.311Z,99.60
2017-12-26T04:29:38.086Z,99.70
2017-12-26T04:32:43.803Z,99.60
2017-12-26T04:35:49.550Z,99.60
2017-12-26T04:38:54.665Z,99.70
2017-12-26T04:42:00.392Z,99.70
2017-12-26T04:45:06.509Z,99.90
2017-12-26T04:48:12.757Z,99.90
2017-12-26T04:51:17.839Z,99.90
2017-12-26T04:54:23.006Z,99.90
2017-12-26T04:57:28.218Z,99.90
2017-12-26T05:00:33.440Z,99.90
2017-12-26T05:03:38.341Z,99.80
2017-12-26T05:06:44.039Z,99.40
2017-12-26T05:09:49.833Z,99.40
2017-12-26T05:12:55.013Z,99.40
2017-12-26T05:16:00.386Z,99.60
2017-12-26T05:19:06.141Z,99.70
2017-12-26T05:22:11.728Z,99.80
2017-12-26T05:25:17.441Z,99.60
2017-12-26T05:28:23.047Z,99.60
2017-12-26T05:31:28.264Z,99.80
2017-12-26T05:34:34.416Z,99.60
2017-12-26T05:37:39.453Z,99.60
2017-12-26T05:40:45.265Z,99.30
2017-12-26T05:43:50.579Z,99.30
2017-12-26T05:46:56.384Z,99.10
2017-12-26T05:50:02.099Z,99.20
2017-12-26T05:53:06.934Z,99.00
2017-12-26T05:56:12.271Z,98.80
2017-12-26T05:59:17.250Z,98.80
2017-12-26T06:02:22.843Z,99.00
2017-12-26T06:05:28.350Z,99.30
2017-12-26T06:08:33.459Z,99.50
2017-12-26T06:11:38.228Z,99.50
2017-12-26T06:14:44.247Z,99.70
2017-12-26T06:17:50.144Z,99.50
2017-12-26T06:20:56.084Z,99.50
2017-12-26T06:24:01.829Z,99.50
2017-12-26T06:27:07.929Z,99.50
2017-12-26T06:30:13.301Z,99.70
2017-12-26T06:33:19.374Z,99.70
2017-12-26T06:36:25.087Z,99.70
2017-12-26T06:39:30.370Z,99.90
2017-12-26T06:42:35.668Z,99.60
2017-12-26T06:45:42.279Z,99.90
2017-12-26T06:48:47.935Z,99.90
2017-12-26T06:51:54.225Z,99.50
2017-12-26T06:54:59.502Z,99.50
2017-12-26T06:58:04.659Z,99.50
2017-12-26T07:01:10.472Z,99.40
2017-12-26T07:04:16.151Z,99.50
2017-12-26T07:07:22.822Z,99.50
2017-12-26T07:10:27.646Z,99.70
2017-12-26T07:13:32.395Z,99.80
2017-12-26T07:16:37.614Z,99.90
2017-12-26T07:19:48.786Z,99.90
2017-12-26T07:22:53.764Z,99.90
2017-12-26T07:25:59.880Z,99.90
2017-12-26T07:29:05.012Z,99.90
2017-12-26T07:32:10.138Z,99.90
2017-12-26T07:35:15.451Z,99.90
2017-12-26T07:38:21.049Z,99.90
2017-12-26T07:41:26.027Z,99.90
2017-12-26T07:44:31.306Z,99.90
2017-12-26T07:47:36.099Z,99.90
2017-12-26T07:50:41.574Z,99.90
2017-12-26T07:53:47.329Z,99.90
2017-12-26T07:56:53.090Z,99.90
2017-12-26T07:59:58.274Z,99.90
2017-12-26T08:03:04.189Z,99.90
2017-12-26T08:06:09.254Z,99.90
2017-12-26T08:09:14.791Z,99.90
2017-12-26T08:12:26.473Z,99.90
2017-12-26T08:15:31.565Z,99.90
2017-12-26T08:18:37.492Z,99.30
2017-12-26T08:21:43.674Z,98.60
2017-12-26T08:24:48.739Z,98.60
2017-12-26T08:27:53.959Z,98.70
2017-12-26T08:30:59.084Z,99.30
2017-12-26T08:34:04.015Z,98.30
2017-12-26T08:37:09.392Z,99.20
2017-12-26T08:40:14.936Z,99.20
2017-12-26T08:43:21.117Z,99.20
2017-12-26T08:46:27.697Z,99.20
2017-12-26T08:49:32.870Z,98.90
2017-12-26T08:52:38.381Z,99.00
2017-12-26T08:55:43.235Z,98.90
2017-12-26T08:58:49.036Z,98.80
2017-12-26T09:01:54.033Z,98.50
2017-12-26T09:04:59.647Z,98.60
2017-12-26T09:08:04.878Z,98.50
2017-12-26T09:11:09.739Z,98.20
2017-12-26T09:14:17.255Z,98.50
2017-12-26T09:17:22.507Z,98.50
2017-12-26T09:20:28.673Z,97.60
2017-12-26T09:23:34.018Z,97.60
2017-12-26T09:26:40.418Z,97.20
2017-12-26T09:29:47.055Z,96.60
2017-12-26T09:32:52.203Z,96.50
2017-12-26T09:35:57.728Z,96.70
2017-12-26T09:39:02.732Z,96.60
2017-12-26T09:42:08.787Z,95.50
2017-12-26T09:45:15.352Z,94.50
2017-12-26T09:48:20.853Z,94.40
2017-12-26T09:51:26.540Z,94.10
2017-12-26T09:54:31.424Z,93.80
2017-12-26T09:57:36.308Z,93.20
2017-12-26T10:00:43.051Z,93.20
2017-12-26T10:03:48.845Z,92.30
2017-12-26T10:06:53.772Z,92.30
2017-12-26T10:09:59.575Z,92.10
2017-12-26T10:13:05.839Z,91.50
2017-12-26T10:16:11.248Z,91.50
2017-12-26T10:19:16.386Z,90.80
2017-12-26T10:22:21.625Z,90.90
2017-12-26T10:25:26.887Z,90.50
2017-12-26T10:28:32.575Z,90.40
2017-12-26T10:31:38.481Z,90.40
2017-12-26T10:34:44.798Z,90.40
2017-12-26T10:37:50.974Z,90.40
2017-12-26T10:40:57.268Z,89.90
2017-12-26T10:44:02.298Z,89.80
2017-12-26T10:47:07.619Z,89.30
2017-12-26T10:50:12.357Z,88.30
2017-12-26T10:53:17.123Z,86.80
2017-12-26T10:56:24.338Z,85.80
2017-12-26T10:59:29.802Z,85.80
2017-12-26T11:02:36.475Z,86.90
2017-12-26T11:05:42.174Z,86.70
2017-12-26T11:08:47.462Z,88.50
2017-12-26T11:11:53.014Z,89.80
2017-12-26T11:14:59.574Z,90.70
2017-12-26T11:18:10.324Z,90.90
2017-12-26T11:21:15.732Z,91.50
2017-12-26T11:24:21.232Z,90.90
2017-12-26T11:27:28.860Z,90.70
2017-12-26T11:30:34.448Z,90.70
2017-12-26T11:33:40.449Z,91.20
2017-12-26T11:36:46.027Z,91.00
2017-12-26T11:39:50.871Z,91.10
2017-12-26T11:42:56.228Z,91.20
2017-12-26T11:46:01.679Z,91.40
2017-12-26T11:49:07.072Z,91.70
2017-12-26T11:52:13.355Z,91.30
2017-12-26T11:55:18.483Z,91.30
2017-12-26T11:58:23.966Z,91.10
2017-12-26T12:01:29.307Z,90.60
2017-12-26T12:04:34.771Z,90.50
2017-12-26T12:07:40.511Z,89.80
2017-12-26T12:10:45.178Z,88.60
2017-12-26T12:13:51.783Z,86.10
2017-12-26T12:16:57.147Z,86.10
2017-12-26T12:20:01.993Z,87.20
2017-12-26T12:23:07.035Z,87.10
2017-12-26T12:26:11.954Z,87.30
2017-12-26T12:29:17.742Z,87.60
2017-12-26T12:32:23.158Z,86.90
2017-12-26T12:35:28.206Z,85.00
2017-12-26T12:38:34.037Z,84.10
2017-12-26T12:41:40.042Z,81.90
2017-12-26T12:44:45.495Z,81.90
2017-12-26T12:47:51.155Z,78.80
2017-12-26T12:50:56.106Z,78.80
2017-12-26T12:54:01.835Z,78.00
2017-12-26T12:57:06.823Z,79.50
2017-12-26T13:00:12.070Z,78.30
2017-12-26T13:03:17.407Z,77.80
2017-12-26T13:06:22.572Z,79.50
2017-12-26T13:09:27.763Z,79.30
2017-12-26T13:12:33.053Z,79.70
2017-12-26T13:15:38.821Z,80.40
2017-12-26T13:18:44.240Z,78.30
2017-12-26T13:21:50.106Z,77.40
2017-12-26T13:24:54.988Z,77.40
2017-12-26T13:28:00.254Z,79.00
2017-12-26T13:31:05.300Z,77.80
2017-12-26T13:34:10.431Z,78.90
2017-12-26T13:37:16.574Z,79.00
2017-12-26T13:40:21.937Z,79.00
2017-12-26T13:43:27.055Z,79.60
2017-12-26T13:46:32.106Z,81.20
2017-12-26T13:49:37.877Z,81.60
2017-12-26T13:52:43.349Z,83.20
2017-12-26T13:55:48.553Z,84.20
2017-12-26T13:58:54.309Z,86.60
2017-12-26T14:01:59.289Z,86.60
2017-12-26T14:05:04.470Z,85.30
2017-12-26T14:08:09.694Z,85.10
2017-12-26T14:11:14.985Z,85.30
2017-12-26T14:14:20.229Z,85.50
2017-12-26T14:17:25.882Z,85.20
2017-12-26T14:20:31.234Z,86.10
2017-12-26T14:23:37.032Z,87.10
2017-12-26T14:26:42.819Z,87.10
2017-12-26T14:29:48.025Z,87.50
2017-12-26T14:32:53.436Z,87.00
2017-12-26T14:35:58.632Z,87.10
2017-12-26T14:39:04.716Z,86.00
2017-12-26T14:42:09.828Z,85.90
2017-12-26T14:45:15.394Z,86.30
2017-12-26T14:48:20.387Z,87.00
2017-12-26T14:51:25.939Z,88.00
2017-12-26T14:54:31.509Z,88.20
2017-12-26T14:57:36.699Z,88.20
2017-12-26T15:00:43.220Z,88.50
2017-12-26T15:03:48.499Z,88.40
2017-12-26T15:06:54.431Z,88.50
2017-12-26T15:10:00.020Z,88.20
2017-12-26T15:13:05.167Z,88.00
2017-12-26T15:16:11.149Z,88.00
2017-12-26T15:19:17.011Z,87.40
2017-12-26T15:22:22.032Z,88.00
2017-12-26T15:25:27.762Z,87.80
2017-12-26T15:28:35.030Z,87.60
2017-12-26T15:31:40.057Z,88.00
2017-12-26T15:34:45.912Z,88.40
2017-12-26T15:37:51.620Z,88.80
2017-12-26T15:40:56.807Z,89.10
2017-12-26T15:44:02.346Z,89.10
2017-12-26T15:47:07.837Z,88.70
2017-12-26T15:50:12.428Z,87.80
2017-12-26T15:53:18.789Z,86.50
2017-12-26T15:56:24.094Z,86.50
2017-12-26T15:59:29.428Z,86.00
2017-12-26T16:02:34.706Z,85.30
2017-12-26T16:05:39.948Z,85.40
2017-12-26T16:08:46.169Z,85.30
2017-12-26T16:11:51.213Z,85.30
2017-12-26T16:14:56.913Z,86.20
2017-12-26T16:18:02.174Z,86.20
2017-12-26T16:21:07.749Z,86.70
2017-12-26T16:24:13.608Z,86.90
2017-12-26T16:27:19.170Z,87.00
2017-12-26T16:30:25.446Z,86.70
2017-12-26T16:33:31.242Z,86.70
2017-12-26T16:36:36.962Z,87.00
2017-12-26T16:39:42.638Z,87.00
2017-12-26T16:42:48.348Z,87.60
2017-12-26T16:45:53.821Z,87.70
2017-12-26T16:48:59.014Z,87.60
2017-12-26T16:52:04.078Z,87.80
2017-12-26T16:55:09.581Z,88.50
2017-12-26T16:58:15.235Z,88.60
2017-12-26T17:01:20.701Z,89.00
2017-12-26T17:04:28.038Z,89.60
2017-12-26T17:07:33.117Z,89.50
2017-12-26T17:10:38.955Z,89.60
2017-12-26T17:13:45.073Z,89.60
2017-12-26T17:16:50.517Z,89.60
2017-12-26T17:19:56.848Z,89.10
2017-12-26T17:23:01.939Z,89.20
2017-12-26T17:26:07.101Z,88.90
2017-12-26T17:29:12.349Z,88.50
2017-12-26T17:32:17.603Z,88.00
2017-12-26T17:35:23.786Z,87.00
2017-12-26T17:38:30.275Z,87.20
2017-12-26T17:41:35.250Z,87.20
2017-12-26T17:44:40.951Z,87.20
2017-12-26T17:47:46.238Z,87.70
2017-12-26T17:50:51.576Z,87.10
2017-12-26T17:54:00.327Z,88.00
2017-12-26T17:57:08.606Z,88.60
2017-12-26T18:00:14.433Z,88.30
2017-12-26T18:03:22.035Z,88.80
2017-12-26T18:06:27.910Z,88.50
2017-12-26T18:09:34.229Z,88.40
2017-12-26T18:12:42.537Z,87.30
2017-12-26T18:15:48.101Z,87.30
2017-12-26T18:18:55.197Z,86.40
2017-12-26T18:22:03.155Z,85.70
2017-12-26T18:25:12.717Z,85.90
2017-12-26T18:28:21.307Z,85.40
2017-12-26T18:31:28.712Z,85.30
2017-12-26T18:34:36.526Z,84.70
2017-12-26T18:37:42.536Z,84.90
2017-12-26T18:40:53.526Z,84.20
2017-12-26T18:44:00.199Z,84.50
2017-12-26T18:47:10.101Z,84.90
2017-12-26T18:50:16.715Z,85.10
2017-12-26T18:53:25.494Z,85.30
2017-12-26T18:56:33.942Z,84.70
2017-12-26T18:59:41.981Z,84.60
2017-12-26T19:02:47.998Z,84.80
2017-12-26T19:05:53.079Z,84.50
2017-12-26T19:08:58.023Z,84.90
2017-12-26T19:12:03.512Z,85.40
2017-12-26T19:15:09.001Z,85.60
2017-12-26T19:18:13.715Z,85.20
2017-12-26T19:21:19.296Z,85.80
2017-12-26T19:24:24.244Z,85.50
2017-12-26T19:27:29.159Z,85.40
2017-12-26T19:30:34.277Z,85.20
2017-12-26T19:33:39.734Z,85.70
2017-12-26T19:36:44.981Z,85.40
2017-12-26T19:39:51.349Z,85.80
2017-12-26T19:42:56.941Z,85.90
2017-12-26T19:46:01.763Z,86.50
2017-12-26T19:49:07.585Z,86.70
2017-12-26T19:52:14.173Z,87.10
2017-12-26T19:55:20.515Z,87.50
2017-12-26T19:58:26.062Z,87.40
2017-12-26T20:01:31.738Z,87.60
2017-12-26T20:04:37.017Z,87.70
2017-12-26T20:07:42.360Z,88.10
2017-12-26T20:10:47.901Z,88.40
2017-12-26T20:13:53.846Z,89.30
2017-12-26T20:16:59.530Z,89.30
2017-12-26T20:20:05.620Z,90.10
2017-12-26T20:23:11.394Z,90.20
2017-12-26T20:26:17.639Z,90.00
2017-12-26T20:29:27.647Z,90.00
2017-12-26T20:32:33.545Z,89.70
2017-12-26T20:35:40.782Z,90.10
2017-12-26T20:38:46.061Z,90.10
2017-12-26T20:41:51.264Z,90.70
2017-12-26T20:44:57.724Z,91.20
2017-12-26T20:48:02.564Z,91.20
2017-12-26T20:51:08.028Z,91.20
2017-12-26T20:54:13.401Z,91.30
2017-12-26T20:57:18.938Z,91.70
2017-12-26T21:00:24.307Z,92.00
2017-12-26T21:03:29.719Z,92.40
2017-12-26T21:06:34.636Z,92.60
2017-12-26T21:09:40.012Z,92.50
2017-12-26T21:12:46.626Z,92.60
2017-12-26T21:15:52.228Z,92.40
2017-12-26T21:19:00.193Z,92.90
2017-12-26T21:22:08.429Z,92.90
2017-12-26T21:25:13.563Z,92.80
2017-12-26T21:28:18.450Z,92.80
2017-12-26T21:31:23.970Z,92.50
2017-12-26T21:34:30.045Z,92.50
2017-12-26T21:37:36.022Z,92.60
2017-12-26T21:40:41.739Z,92.60
2017-12-26T21:43:47.669Z,92.80
2017-12-26T21:46:52.898Z,92.80
2017-12-26T21:49:58.482Z,92.80
2017-12-26T21:53:03.721Z,92.90
2017-12-26T21:56:09.125Z,93.00
2017-12-26T21:59:15.176Z,93.10
2017-12-26T22:02:20.533Z,93.00
2017-12-26T22:05:25.677Z,92.80
2017-12-26T22:08:31.322Z,93.00
2017-12-26T22:11:36.799Z,93.10
2017-12-26T22:14:41.957Z,93.40
2017-12-26T22:17:48.081Z,93.80
2017-12-26T22:20:54.096Z,94.00
2017-12-26T22:23:59.488Z,94.00
2017-12-26T22:27:05.017Z,94.20
2017-12-26T22:30:10.949Z,94.70
2017-12-26T22:33:16.375Z,94.60
2017-12-26T22:36:21.570Z,94.20
2017-12-26T22:39:27.206Z,94.20
2017-12-26T22:42:32.278Z,94.60
2017-12-26T22:45:37.238Z,94.70
2017-12-26T22:48:42.773Z,94.40
2017-12-26T22:51:47.861Z,94.10
2017-12-26T22:54:53.770Z,93.80
2017-12-26T22:57:59.794Z,93.50
2017-12-26T23:01:06.223Z,93.60
2017-12-26T23:04:11.293Z,93.50
2017-12-26T23:07:16.661Z,93.70
2017-12-26T23:10:22.550Z,93.20
2017-12-26T23:13:28.077Z,93.40
2017-12-26T23:16:39.002Z,93.60
2017-12-26T23:19:50.665Z,94.20
2017-12-26T23:22:55.842Z,94.20
2017-12-26T23:26:07.627Z,94.10
2017-12-26T23:29:18.918Z,94.00
2017-12-26T23:32:30.544Z,93.80
2017-12-26T23:35:41.512Z,93.80
2017-12-26T23:38:53.293Z,93.70
2017-12-26T23:42:04.415Z,93.60
2017-12-26T23:45:16.489Z,93.60
2017-12-26T23:48:28.272Z,93.60
2017-12-26T23:51:39.322Z,93.80
2017-12-26T23:54:50.989Z,94.00
2017-12-26T23:58:02.826Z,94.50
